Shawanaga, Canada
Current Conditions -  °F | °C
As of 6:00 PM on Monday 20 Oct 2014 (Local Time) from CYQA Reporting Station
Light Rain Light Rain  
Wind Chill: 44°   Ceiling: 300
Heat Index: 46°   Visibility: 2mi
Dew Point: 46°   Wind: 6mph
Humidity: 100%   Direction: 170°S
Pressure: 29.78"   Gusts: NA
Location:  45.52°N, 80.28°W
Report Text: CYQA 202200Z AUTO 17005KT 2SM -RA BR OVC003 08/08 A2978 RMK PCPN 0.8MM PAST HR TS/LTNG TEMPO UNAVBL SLP091
Loading
Personal Weather Stations






























Interactive Weather Map
Tropical Storm Tracking
New forecast layout! Learn more

10-Day Weather Forecast

Advertisements
Track Severe Weather on mobile